createdAt,value
2022-12-03T00:02:13.526Z,25.10
2022-12-03T00:04:39.995Z,18.50
2022-12-03T00:07:06.387Z,21.10
2022-12-03T00:09:32.731Z,23.80
2022-12-03T00:11:59.172Z,23.88
2022-12-03T00:14:25.507Z,21.98
2022-12-03T00:16:51.868Z,21.38
2022-12-03T00:19:18.242Z,21.57
2022-12-03T00:21:44.570Z,18.88
2022-12-03T00:24:10.899Z,19.83
2022-12-03T00:26:37.363Z,21.95
2022-12-03T00:29:03.864Z,20.95
2022-12-03T00:31:30.269Z,20.93
2022-12-03T00:33:56.652Z,20.98
2022-12-03T00:36:23.093Z,23.38
2022-12-03T00:38:49.407Z,20.00
2022-12-03T00:41:15.889Z,24.85
2022-12-03T00:43:42.267Z,22.40
2022-12-03T00:46:08.739Z,21.70
2022-12-03T00:48:35.267Z,23.08
2022-12-03T00:51:01.675Z,21.17
2022-12-03T00:53:28.140Z,22.05
2022-12-03T00:55:54.515Z,21.83
2022-12-03T00:58:20.854Z,22.38
2022-12-03T01:00:47.213Z,23.00
2022-12-03T01:03:13.617Z,24.10
2022-12-03T01:05:39.971Z,23.13
2022-12-03T01:08:06.362Z,27.03
2022-12-03T01:10:32.756Z,21.27
2022-12-03T01:12:59.152Z,19.13
2022-12-03T01:15:25.509Z,18.92
2022-12-03T01:17:54.224Z,22.10
2022-12-03T01:20:20.943Z,21.67
2022-12-03T01:22:47.293Z,22.92
2022-12-03T01:25:13.714Z,23.55
2022-12-03T01:27:40.062Z,21.42
2022-12-03T01:30:07.308Z,22.02
2022-12-03T01:32:33.730Z,23.50
2022-12-03T01:35:00.242Z,23.40
2022-12-03T01:37:27.282Z,21.27
2022-12-03T01:39:53.686Z,25.90
2022-12-03T01:42:33.703Z,23.08
2022-12-03T01:45:00.672Z,19.30
2022-12-03T01:47:33.434Z,20.83
2022-12-03T01:50:15.444Z,21.25
2022-12-03T01:52:42.510Z,22.20
2022-12-03T01:55:14.762Z,24.73
2022-12-03T01:57:50.097Z,22.23
2022-12-03T02:00:19.095Z,23.55
2022-12-03T02:02:48.162Z,21.30
2022-12-03T02:05:20.932Z,22.90
2022-12-03T02:07:47.442Z,27.67
2022-12-03T02:10:16.917Z,21.00
2022-12-03T02:12:49.914Z,22.60
2022-12-03T02:15:16.686Z,24.60
2022-12-03T02:17:43.252Z,19.90
2022-12-03T02:20:11.494Z,21.10
2022-12-03T02:22:45.674Z,22.47
2022-12-03T02:25:18.150Z,24.98
2022-12-03T02:27:45.486Z,22.70
2022-12-03T02:30:13.921Z,22.05
2022-12-03T02:32:40.671Z,21.35
2022-12-03T02:35:13.863Z,21.70
2022-12-03T02:37:41.696Z,19.42
2022-12-03T02:40:12.374Z,21.50
2022-12-03T02:42:39.311Z,20.73
2022-12-03T02:45:20.745Z,23.50
2022-12-03T02:47:51.726Z,19.23
2022-12-03T02:50:21.943Z,23.70
2022-12-03T02:52:49.262Z,22.17
2022-12-03T02:55:17.166Z,22.63
2022-12-03T02:57:46.801Z,19.60
2022-12-03T03:00:13.930Z,21.63
2022-12-03T03:02:41.697Z,19.73
2022-12-03T03:05:11.688Z,21.85
2022-12-03T03:07:39.494Z,21.77
2022-12-03T03:10:09.198Z,23.38
2022-12-03T03:12:39.203Z,24.43
2022-12-03T03:15:08.002Z,23.30
2022-12-03T03:17:34.386Z,18.88
2022-12-03T03:20:01.032Z,22.55
2022-12-03T03:22:35.589Z,22.67
2022-12-03T03:25:02.890Z,25.77
2022-12-03T03:27:29.785Z,19.88
2022-12-03T03:29:58.355Z,20.27
2022-12-03T03:32:26.635Z,24.23
2022-12-03T03:34:53.397Z,20.67
2022-12-03T03:37:20.118Z,25.97
2022-12-03T03:39:46.684Z,21.95
2022-12-03T03:42:13.160Z,24.65
2022-12-03T03:44:39.630Z,21.08
2022-12-03T03:47:06.244Z,22.40
2022-12-03T03:49:32.889Z,22.07
2022-12-03T03:51:59.418Z,22.58
2022-12-03T03:54:25.962Z,23.02
2022-12-03T03:56:52.563Z,24.55
2022-12-03T03:59:19.006Z,23.35
2022-12-03T04:01:46.205Z,22.70
2022-12-03T04:04:21.312Z,24.50
2022-12-03T04:06:47.875Z,22.13
2022-12-03T04:09:14.669Z,24.45
2022-12-03T04:12:00.131Z,23.13
2022-12-03T04:14:26.504Z,22.93
2022-12-03T04:16:52.871Z,22.45
2022-12-03T04:19:19.287Z,22.30
2022-12-03T04:22:04.470Z,24.63
2022-12-03T04:24:30.864Z,20.55
2022-12-03T04:27:15.855Z,22.10
2022-12-03T04:29:42.227Z,23.40
2022-12-03T04:32:27.269Z,22.98
2022-12-03T04:35:12.144Z,24.10
2022-12-03T04:37:38.564Z,20.67
2022-12-03T04:40:25.776Z,26.20
2022-12-03T04:42:52.140Z,25.38
2022-12-03T04:45:18.491Z,22.58
2022-12-03T04:47:44.986Z,21.17
2022-12-03T04:50:11.526Z,22.02
2022-12-03T04:52:37.875Z,23.17
2022-12-03T04:55:04.495Z,22.80
2022-12-03T04:57:30.849Z,24.58
2022-12-03T04:59:57.227Z,22.45
2022-12-03T05:02:23.854Z,24.92
2022-12-03T05:04:50.407Z,26.40
2022-12-03T05:07:16.945Z,25.88
2022-12-03T05:09:43.297Z,22.10
2022-12-03T05:12:09.649Z,22.52
2022-12-03T05:14:35.990Z,22.52
2022-12-03T05:17:02.416Z,22.67
2022-12-03T05:19:47.542Z,24.23
2022-12-03T05:22:13.907Z,26.83
2022-12-03T05:24:40.254Z,29.83
2022-12-03T05:27:06.600Z,28.27
2022-12-03T05:29:33.243Z,26.23
2022-12-03T05:31:59.577Z,29.40
2022-12-03T05:34:25.946Z,28.35
2022-12-03T05:36:52.303Z,24.35
2022-12-03T05:39:18.655Z,28.58
2022-12-03T05:42:03.638Z,28.37
2022-12-03T05:44:30.011Z,26.70
2022-12-03T05:46:56.367Z,29.77
2022-12-03T05:49:22.791Z,26.70
2022-12-03T05:51:52.470Z,30.35
2022-12-03T05:54:21.488Z,25.10
2022-12-03T05:56:47.835Z,26.30
2022-12-03T05:59:14.286Z,30.85
2022-12-03T06:01:40.631Z,31.48
2022-12-03T06:04:07.094Z,27.33
2022-12-03T06:06:33.476Z,28.03
2022-12-03T06:08:59.872Z,28.73
2022-12-03T06:11:26.227Z,28.67
2022-12-03T06:13:52.570Z,26.38
2022-12-03T06:16:18.945Z,30.13
2022-12-03T06:18:45.359Z,29.60
2022-12-03T06:21:11.744Z,30.65
2022-12-03T06:23:44.386Z,31.35
2022-12-03T06:26:11.947Z,24.58
2022-12-03T06:28:38.278Z,29.27
2022-12-03T06:31:04.905Z,26.10
2022-12-03T06:33:31.323Z,26.92
2022-12-03T06:35:57.671Z,25.92
2022-12-03T06:38:24.015Z,27.02
2022-12-03T06:40:50.378Z,25.35
2022-12-03T06:43:16.728Z,26.00
2022-12-03T06:45:47.547Z,25.20
2022-12-03T06:48:14.546Z,24.75
2022-12-03T06:50:40.932Z,23.90
2022-12-03T06:53:07.287Z,27.40
2022-12-03T06:55:33.625Z,25.57
2022-12-03T06:57:59.973Z,23.65
2022-12-03T07:00:26.360Z,25.50
2022-12-03T07:02:52.823Z,29.00
2022-12-03T07:05:19.956Z,25.23
2022-12-03T07:07:51.962Z,26.60
2022-12-03T07:10:19.215Z,25.15
2022-12-03T07:12:45.563Z,26.58
2022-12-03T07:15:12.092Z,25.75
2022-12-03T07:17:38.575Z,25.10
2022-12-03T07:20:05.842Z,23.13
2022-12-03T07:22:32.284Z,23.88
2022-12-03T07:24:58.727Z,23.35
2022-12-03T07:27:25.131Z,24.20
2022-12-03T07:29:51.666Z,27.42
2022-12-03T07:32:18.031Z,26.80
2022-12-03T07:34:44.370Z,24.83
2022-12-03T07:37:10.748Z,24.92
2022-12-03T07:39:37.139Z,22.90
2022-12-03T07:42:03.835Z,21.80
2022-12-03T07:44:31.773Z,27.77
2022-12-03T07:46:58.584Z,24.95
2022-12-03T07:49:26.623Z,25.25
2022-12-03T07:51:56.972Z,26.88
2022-12-03T07:54:24.554Z,24.52
2022-12-03T07:56:50.943Z,26.17
2022-12-03T07:59:17.536Z,24.45
2022-12-03T08:01:44.025Z,24.17
2022-12-03T08:04:12.839Z,28.23
2022-12-03T08:06:39.214Z,27.00
2022-12-03T08:09:05.611Z,27.53
2022-12-03T08:11:32.879Z,25.98
2022-12-03T08:13:59.236Z,28.63
2022-12-03T08:16:26.094Z,25.20
2022-12-03T08:18:54.787Z,27.38
2022-12-03T08:21:21.845Z,25.67
2022-12-03T08:23:48.851Z,27.40
2022-12-03T08:26:28.295Z,27.02
2022-12-03T08:28:54.868Z,25.30
2022-12-03T08:31:32.264Z,27.70
2022-12-03T08:34:15.553Z,24.90
2022-12-03T08:36:42.021Z,25.63
2022-12-03T08:39:28.351Z,29.85
2022-12-03T08:42:18.443Z,24.83
2022-12-03T08:44:44.891Z,26.77
2022-12-03T08:47:22.688Z,26.20
2022-12-03T08:50:23.490Z,32.40
2022-12-03T08:52:49.979Z,29.52
2022-12-03T08:55:36.105Z,27.40
2022-12-03T08:58:23.306Z,26.13
2022-12-03T09:01:02.832Z,26.33
2022-12-03T09:03:31.738Z,28.83
2022-12-03T09:05:58.143Z,29.95
2022-12-03T09:08:24.482Z,28.33
2022-12-03T09:10:50.846Z,28.70
2022-12-03T09:13:17.196Z,31.63
2022-12-03T09:15:43.588Z,29.80
2022-12-03T09:18:10.053Z,26.40
2022-12-03T09:20:36.418Z,31.60
2022-12-03T09:23:02.882Z,29.52
2022-12-03T09:25:29.326Z,26.33
2022-12-03T09:27:55.659Z,27.70
2022-12-03T09:30:22.073Z,27.20
2022-12-03T09:32:48.467Z,25.45
2022-12-03T09:35:14.948Z,29.30
2022-12-03T09:37:41.324Z,31.07
2022-12-03T09:40:08.604Z,27.38
2022-12-03T09:42:35.399Z,29.70
2022-12-03T09:45:03.471Z,31.63
2022-12-03T09:47:31.783Z,27.98
2022-12-03T09:49:58.770Z,26.07
2022-12-03T09:52:28.342Z,27.45
2022-12-03T09:54:55.259Z,27.65
2022-12-03T09:57:21.891Z,26.23
2022-12-03T09:59:48.382Z,23.58
2022-12-03T10:02:31.282Z,26.87
2022-12-03T10:04:58.309Z,25.35
2022-12-03T10:07:25.377Z,29.10
2022-12-03T10:09:52.260Z,24.65
2022-12-03T10:12:24.497Z,27.40
2022-12-03T10:14:52.201Z,19.33
2022-12-03T10:17:18.921Z,31.17
2022-12-03T10:19:45.521Z,27.35
2022-12-03T10:22:11.892Z,27.33
2022-12-03T10:24:38.682Z,30.27
2022-12-03T10:27:20.834Z,30.50
2022-12-03T10:29:56.042Z,26.40
2022-12-03T10:32:45.967Z,31.65
2022-12-03T10:35:23.440Z,33.15
2022-12-03T10:38:05.188Z,34.97
2022-12-03T10:40:32.604Z,32.43
2022-12-03T10:43:26.745Z,28.88
2022-12-03T10:46:03.562Z,31.73
2022-12-03T10:48:30.794Z,29.65
2022-12-03T10:51:04.074Z,29.52
2022-12-03T10:53:33.875Z,25.67
2022-12-03T10:56:03.631Z,29.98
2022-12-03T10:58:38.998Z,32.08
2022-12-03T11:01:20.192Z,33.08
2022-12-03T11:03:47.652Z,28.88
2022-12-03T11:06:16.553Z,29.33
2022-12-03T11:08:45.777Z,29.23
2022-12-03T11:11:15.118Z,36.92
2022-12-03T11:13:41.451Z,32.60
2022-12-03T11:16:10.728Z,28.35
2022-12-03T11:18:37.204Z,30.50
2022-12-03T11:21:05.540Z,30.50
2022-12-03T11:23:44.074Z,26.92
2022-12-03T11:26:19.475Z,25.10
2022-12-03T11:28:46.110Z,25.60
2022-12-03T11:31:44.895Z,22.37
2022-12-03T11:34:20.595Z,22.35
2022-12-03T11:37:11.895Z,22.63
2022-12-03T11:40:24.754Z,25.02
2022-12-03T11:42:51.123Z,17.80
2022-12-03T11:45:32.020Z,16.77
2022-12-03T11:47:58.332Z,20.25
2022-12-03T11:50:37.783Z,21.30
2022-12-03T11:53:16.603Z,15.75
2022-12-03T11:55:51.911Z,20.45
2022-12-03T11:58:29.037Z,17.57
2022-12-03T12:00:57.835Z,18.15
2022-12-03T12:03:46.249Z,18.20
2022-12-03T12:06:15.759Z,17.55
2022-12-03T12:08:51.199Z,16.67
2022-12-03T12:11:19.749Z,18.07
2022-12-03T12:13:50.152Z,17.67
2022-12-03T12:16:35.728Z,17.15
2022-12-03T12:19:34.420Z,20.38
2022-12-03T12:22:27.349Z,21.52
2022-12-03T12:25:01.843Z,19.43
2022-12-03T12:27:49.421Z,20.85
2022-12-03T12:30:21.698Z,19.65
2022-12-03T12:33:12.579Z,18.67
2022-12-03T12:35:38.948Z,19.80
2022-12-03T12:38:10.757Z,21.10
2022-12-03T12:40:39.981Z,20.80
2022-12-03T12:43:20.295Z,22.15
2022-12-03T12:45:52.222Z,20.13
2022-12-03T12:48:23.076Z,21.55
2022-12-03T12:51:01.631Z,22.73
2022-12-03T12:53:33.319Z,19.15
2022-12-03T12:56:31.424Z,22.52
2022-12-03T12:59:09.238Z,25.90
2022-12-03T13:01:36.390Z,19.98
2022-12-03T13:04:11.626Z,23.67
2022-12-03T13:06:38.607Z,26.42
2022-12-03T13:09:12.993Z,22.88
2022-12-03T13:11:45.438Z,24.70
2022-12-03T13:14:16.922Z,22.65
2022-12-03T13:16:44.208Z,21.53
2022-12-03T13:19:23.603Z,22.85
2022-12-03T13:21:52.367Z,27.52
2022-12-03T13:24:35.819Z,33.55
2022-12-03T13:27:19.673Z,38.03
2022-12-03T13:29:49.512Z,42.00
2022-12-03T13:32:19.412Z,44.95
2022-12-03T13:34:46.693Z,46.50
2022-12-03T13:37:22.348Z,49.92
2022-12-03T13:39:55.111Z,54.15
2022-12-03T13:42:46.478Z,50.37
2022-12-03T13:45:18.941Z,39.30
2022-12-03T13:48:08.634Z,38.13
2022-12-03T13:50:36.691Z,36.58
2022-12-03T13:53:15.835Z,32.40
2022-12-03T13:55:47.671Z,41.67
2022-12-03T13:58:14.014Z,49.70
2022-12-03T14:00:40.447Z,50.67
2022-12-03T14:03:06.793Z,48.83
2022-12-03T14:05:33.275Z,45.22
2022-12-03T14:08:02.290Z,43.17
2022-12-03T14:10:29.443Z,39.55
2022-12-03T14:12:56.435Z,41.38
2022-12-03T14:15:22.975Z,40.28
2022-12-03T14:17:49.362Z,34.75
2022-12-03T14:20:15.871Z,35.00
2022-12-03T14:22:42.350Z,39.42
2022-12-03T14:25:08.903Z,36.22
2022-12-03T14:27:35.266Z,30.30
2022-12-03T14:30:01.650Z,29.58
2022-12-03T14:32:28.418Z,33.73
2022-12-03T14:34:54.846Z,39.78
2022-12-03T14:37:21.195Z,30.58
2022-12-03T14:39:47.586Z,24.67
2022-12-03T14:42:13.933Z,27.83
2022-12-03T14:44:42.419Z,29.40
2022-12-03T14:47:09.575Z,29.13
2022-12-03T14:49:35.963Z,26.52
2022-12-03T14:52:02.318Z,28.60
2022-12-03T14:54:28.675Z,37.35
2022-12-03T14:56:55.167Z,29.73
2022-12-03T14:59:27.228Z,28.08
2022-12-03T15:01:54.128Z,25.80
2022-12-03T15:04:20.703Z,27.50
2022-12-03T15:06:47.068Z,23.00
2022-12-03T15:09:13.719Z,22.67
2022-12-03T15:11:45.754Z,21.95
2022-12-03T15:14:12.625Z,20.77
2022-12-03T15:16:39.059Z,19.08
2022-12-03T15:19:05.487Z,19.33
2022-12-03T15:21:34.798Z,25.20
2022-12-03T15:24:02.136Z,25.75
2022-12-03T15:26:28.847Z,27.23
2022-12-03T15:28:55.180Z,30.48
2022-12-03T15:31:21.730Z,31.85
2022-12-03T15:33:48.185Z,36.50
2022-12-03T15:36:14.825Z,35.05
2022-12-03T15:38:41.290Z,35.53
2022-12-03T15:41:27.055Z,30.58
2022-12-03T15:43:53.425Z,36.47
2022-12-03T15:46:20.212Z,39.23
2022-12-03T15:48:47.813Z,40.38
2022-12-03T15:51:14.440Z,41.80
2022-12-03T15:53:41.288Z,33.50
2022-12-03T15:56:07.840Z,32.78
2022-12-03T15:58:34.689Z,32.60
2022-12-03T16:01:01.369Z,38.75
2022-12-03T16:03:28.070Z,35.58
2022-12-03T16:05:54.645Z,39.55
2022-12-03T16:08:21.391Z,36.85
2022-12-03T16:10:47.888Z,38.27
2022-12-03T16:13:14.258Z,36.70
2022-12-03T16:15:40.667Z,38.88
2022-12-03T16:18:07.096Z,37.45
2022-12-03T16:20:34.059Z,42.67
2022-12-03T16:23:00.418Z,38.67
2022-12-03T16:25:26.879Z,35.10
2022-12-03T16:27:53.231Z,44.33
2022-12-03T16:30:19.673Z,42.60
2022-12-03T16:32:46.049Z,38.60
2022-12-03T16:35:12.393Z,40.03
2022-12-03T16:37:38.903Z,36.53
2022-12-03T16:40:06.084Z,36.20
2022-12-03T16:42:32.515Z,31.67
2022-12-03T16:45:04.488Z,36.60
2022-12-03T16:47:34.039Z,34.57
2022-12-03T16:50:05.346Z,34.85
2022-12-03T16:52:31.708Z,31.67
2022-12-03T16:54:58.081Z,38.05
2022-12-03T16:57:27.594Z,34.55
2022-12-03T16:59:56.770Z,34.13
2022-12-03T17:02:24.636Z,37.30
2022-12-03T17:04:51.099Z,32.72
2022-12-03T17:07:32.644Z,34.83
2022-12-03T17:09:59.041Z,35.63
2022-12-03T17:12:25.622Z,46.37
2022-12-03T17:14:56.442Z,35.30
2022-12-03T17:17:22.970Z,40.53
2022-12-03T17:19:50.335Z,37.05
2022-12-03T17:22:16.718Z,44.15
2022-12-03T17:24:43.175Z,37.07
2022-12-03T17:27:09.718Z,37.42
2022-12-03T17:29:36.073Z,42.83
2022-12-03T17:32:03.007Z,38.17
2022-12-03T17:34:29.469Z,36.40
2022-12-03T17:36:55.856Z,38.80
2022-12-03T17:39:22.319Z,35.70
2022-12-03T17:41:48.663Z,40.85
2022-12-03T17:44:19.461Z,44.40
2022-12-03T17:46:47.656Z,38.88
2022-12-03T17:49:14.069Z,37.57
2022-12-03T17:51:40.507Z,34.88
2022-12-03T17:54:07.268Z,38.05
2022-12-03T17:56:33.787Z,40.20
2022-12-03T17:59:00.147Z,39.20
2022-12-03T18:01:26.557Z,40.43
2022-12-03T18:03:53.017Z,38.08
2022-12-03T18:06:19.419Z,38.22
2022-12-03T18:08:45.796Z,36.65
2022-12-03T18:11:12.292Z,37.42
2022-12-03T18:13:38.701Z,39.90
2022-12-03T18:16:05.544Z,41.55
2022-12-03T18:18:31.918Z,41.63
2022-12-03T18:21:02.021Z,39.25
2022-12-03T18:23:29.064Z,38.08
2022-12-03T18:25:55.865Z,40.57
2022-12-03T18:28:22.895Z,40.50
2022-12-03T18:30:52.802Z,37.42
2022-12-03T18:33:19.851Z,41.58
2022-12-03T18:35:46.199Z,39.58
2022-12-03T18:38:15.159Z,34.90
2022-12-03T18:40:43.794Z,40.50
2022-12-03T18:43:15.892Z,38.83
2022-12-03T18:45:42.761Z,34.35
2022-12-03T18:48:12.668Z,35.00
2022-12-03T18:50:39.724Z,33.27
2022-12-03T18:53:07.690Z,36.97
2022-12-03T18:55:35.208Z,32.65
2022-12-03T18:58:01.772Z,35.28
2022-12-03T19:00:28.170Z,36.92
2022-12-03T19:03:03.142Z,34.53
2022-12-03T19:05:32.540Z,33.85
2022-12-03T19:07:59.349Z,33.17
2022-12-03T19:10:25.931Z,36.88
2022-12-03T19:12:52.310Z,36.00
2022-12-03T19:15:18.790Z,34.77
2022-12-03T19:17:49.647Z,38.35
2022-12-03T19:20:16.300Z,34.25
2022-12-03T19:22:42.662Z,33.78
2022-12-03T19:25:09.259Z,37.20
2022-12-03T19:27:35.630Z,32.70
2022-12-03T19:30:02.000Z,36.47
2022-12-03T19:32:28.399Z,35.70
2022-12-03T19:34:54.799Z,31.77
2022-12-03T19:37:21.156Z,37.70
2022-12-03T19:39:47.516Z,38.10
2022-12-03T19:42:13.886Z,28.55
2022-12-03T19:44:40.259Z,34.58
2022-12-03T19:47:06.659Z,34.75
2022-12-03T19:49:33.035Z,31.80
2022-12-03T19:51:59.397Z,34.60
2022-12-03T19:54:25.807Z,33.65
2022-12-03T19:56:52.286Z,30.25
2022-12-03T19:59:18.694Z,35.38
2022-12-03T20:01:45.205Z,34.13
2022-12-03T20:04:12.693Z,26.53
2022-12-03T20:06:39.285Z,32.80
2022-12-03T20:09:08.593Z,36.35
2022-12-03T20:11:35.467Z,31.73
2022-12-03T20:14:05.154Z,50.38
2022-12-03T20:16:31.708Z,29.67
2022-12-03T20:19:00.158Z,29.38
2022-12-03T20:21:28.297Z,31.30
2022-12-03T20:23:54.767Z,33.03
2022-12-03T20:26:22.100Z,36.65
2022-12-03T20:28:49.148Z,33.90
2022-12-03T20:31:18.608Z,32.10
2022-12-03T20:33:47.411Z,30.88
2022-12-03T20:36:15.380Z,34.95
2022-12-03T20:38:41.859Z,33.45
2022-12-03T20:41:11.499Z,32.07
2022-12-03T20:43:38.436Z,33.15
2022-12-03T20:46:23.924Z,31.05
2022-12-03T20:48:50.318Z,31.27
2022-12-03T20:51:19.819Z,30.10
2022-12-03T20:53:46.911Z,28.00
2022-12-03T20:56:34.580Z,33.90
2022-12-03T20:59:04.868Z,30.17
2022-12-03T21:01:31.331Z,33.53
2022-12-03T21:03:58.369Z,33.22
2022-12-03T21:06:27.776Z,31.20
2022-12-03T21:08:55.256Z,32.45
2022-12-03T21:11:24.177Z,33.13
2022-12-03T21:13:51.238Z,32.72
2022-12-03T21:16:34.171Z,30.50
2022-12-03T21:19:07.943Z,31.43
2022-12-03T21:21:36.442Z,32.78
2022-12-03T21:24:03.028Z,31.92
2022-12-03T21:26:29.432Z,32.30
2022-12-03T21:28:55.975Z,34.28
2022-12-03T21:31:25.717Z,31.13
2022-12-03T21:33:56.524Z,31.05
2022-12-03T21:36:23.346Z,33.50
2022-12-03T21:38:49.697Z,32.55
2022-12-03T21:41:16.560Z,29.73
2022-12-03T21:43:43.720Z,31.73
2022-12-03T21:47:09.876Z,34.85
2022-12-03T21:49:03.496Z,30.10
2022-12-03T21:51:29.929Z,30.45
2022-12-03T21:53:56.281Z,29.13
2022-12-03T21:56:22.675Z,36.67
2022-12-03T21:58:49.042Z,32.75
2022-12-03T22:01:21.907Z,36.92
2022-12-03T22:03:49.016Z,31.15
2022-12-03T22:06:15.950Z,32.40
2022-12-03T22:08:43.196Z,35.43
2022-12-03T22:11:13.347Z,34.35
2022-12-03T22:13:40.855Z,31.13
2022-12-03T22:16:10.183Z,34.45
2022-12-03T22:18:36.584Z,36.13
2022-12-03T22:21:08.461Z,32.10
2022-12-03T22:23:34.918Z,33.10
2022-12-03T22:26:04.944Z,34.58
2022-12-03T22:28:31.607Z,32.33
2022-12-03T22:30:58.311Z,34.17
2022-12-03T22:33:25.016Z,35.13
2022-12-03T22:35:59.330Z,32.67
2022-12-03T22:38:26.424Z,38.78
2022-12-03T22:40:52.880Z,32.08
2022-12-03T22:43:19.772Z,34.97
2022-12-03T22:45:46.909Z,40.97
2022-12-03T22:48:13.956Z,37.55
2022-12-03T22:50:43.109Z,38.00
2022-12-03T22:53:09.590Z,36.10
2022-12-03T22:55:35.951Z,39.72
2022-12-03T22:58:02.792Z,36.10
2022-12-03T23:00:32.211Z,38.00
2022-12-03T23:02:58.659Z,36.63
2022-12-03T23:05:25.114Z,36.65
2022-12-03T23:07:52.070Z,32.67
2022-12-03T23:10:18.445Z,36.40
2022-12-03T23:12:44.807Z,40.03
2022-12-03T23:15:11.390Z,40.38
2022-12-03T23:17:37.722Z,40.88
2022-12-03T23:20:04.565Z,42.25
2022-12-03T23:22:30.922Z,38.50
2022-12-03T23:24:57.435Z,41.33
2022-12-03T23:27:23.941Z,37.15
2022-12-03T23:29:50.288Z,37.88
2022-12-03T23:32:16.638Z,39.35
2022-12-03T23:34:43.075Z,40.77
2022-12-03T23:37:09.865Z,37.72
2022-12-03T23:39:36.246Z,37.33
2022-12-03T23:42:03.725Z,39.63
2022-12-03T23:44:30.204Z,37.30
2022-12-03T23:46:56.761Z,35.27
2022-12-03T23:49:23.227Z,38.60
2022-12-03T23:51:49.615Z,36.90
2022-12-03T23:54:15.973Z,36.70
2022-12-03T23:56:42.327Z,36.97
2022-12-03T23:59:08.720Z,36.73
